Bowdoin, Maine
Current Conditions -  °F | °C
As of 9:35 AM on Saturday 25 Oct 2014 (Local Time) from KLEW Reporting Station
Clear Clear  
Wind Chill: 54°   Ceiling: Unl
Heat Index: 54°   Visibility: 10mi
Dew Point: 36°   Wind: 0mph
Humidity: 51%   Direction: NA
Pressure: 29.69"   Gusts: NA
Location:  44.05°N, 70.02°W
Report Text: KLEW 251335Z AUTO 00000KT 10SM CLR 12/02 A2969 RMK AO1
Loading
Personal Weather Stations






























Interactive Weather Map
Tropical Storm Tracking
New forecast layout! Learn more

10-Day Weather Forecast

Advertisements
Track Severe Weather on mobile